Accueil
METAR-TAF:

METAR-TAF

Aéroports :

Coni, Italie

Aéroport international de Coni

latitude: 44-32-47N, longitude: 007-37-20E, altitude: 386 m

Observation

Le bulletin a été fait il y a 57 minutes, à 07:50 UTC
Vent 3 kt de nord-est, variant entre nord/nord-ouest et est/sud-est
Température 21°C
Humidité 56%
Pression 1019 hPa
Visibilité 10 km ou plus
pas de nuages en-dessous de 1500 mètres et pas de cumulonimbus.

METAR: LIMZ 230750Z 05003KT 330V110 CAVOK 21/12 Q1019

Heure: 10:47 (08:47 UTC)

Prévision

Le bulletin a été fait il y a 3 heures et 47 minutes, à 05:00 UTC
Prévision valable du 23 à 06 UTC au 24 à 06 UTC
Vent 5 kt de direction variable
Visibilité 10 km ou plus
pas de nuages en-dessous de 1500 mètres et pas de cumulonimbus.

TAF: LIMZ 230500Z 2306/2406 VRB05KT CAVOK

Observations et prévisions météorologiques de plus de 4000 aéroports (messages METAR et TAF).

Les stations disponibles sont représentées par des disques jaunes et rouges sur la carte.

Passer la souris dessus pour voir le nom de la station.

Cliquer dessus pour voir les observations et prévisions météorologiques.

Pour changer de carte: cliquez sur les boutons verts avec une croix noire pour zoomer, sur le bouton vert avec un tiret pour effectuer un zoom arrière, ou sur les flèches vertes pour les cartes adjacentes.


METAR-TAF: